sensor_id;sensor_type;location;lat;lon;timestamp;temperature;humidity
6379;DHT22;3222;48.858;10.128;2023-08-20T00:00:52;23.20;99.90
6379;DHT22;3222;48.858;10.128;2023-08-20T00:03:18;23.20;99.90
6379;DHT22;3222;48.858;10.128;2023-08-20T00:05:44;23.20;99.90
6379;DHT22;3222;48.858;10.128;2023-08-20T00:08:09;23.10;99.90
6379;DHT22;3222;48.858;10.128;2023-08-20T00:10:35;23.10;99.90
6379;DHT22;3222;48.858;10.128;2023-08-20T00:13:01;23.10;99.90
6379;DHT22;3222;48.858;10.128;2023-08-20T00:15:27;23.10;99.90
6379;DHT22;3222;48.858;10.128;2023-08-20T00:17:54;23.10;99.90
6379;DHT22;3222;48.858;10.128;2023-08-20T00:20:21;23.10;99.90
6379;DHT22;3222;48.858;10.128;2023-08-20T00:22:48;23.00;99.90
6379;DHT22;3222;48.858;10.128;2023-08-20T00:25:14;23.00;99.90
6379;DHT22;3222;48.858;10.128;2023-08-20T00:27:45;23.00;99.90
6379;DHT22;3222;48.858;10.128;2023-08-20T00:30:11;23.00;99.90
6379;DHT22;3222;48.858;10.128;2023-08-20T00:32:37;23.00;99.90
6379;DHT22;3222;48.858;10.128;2023-08-20T00:35:03;23.00;99.90
6379;DHT22;3222;48.858;10.128;2023-08-20T00:37:30;23.00;99.90
6379;DHT22;3222;48.858;10.128;2023-08-20T00:39:56;23.00;99.90
6379;DHT22;3222;48.858;10.128;2023-08-20T00:42:23;23.00;99.90
6379;DHT22;3222;48.858;10.128;2023-08-20T00:44:53;23.00;99.90
6379;DHT22;3222;48.858;10.128;2023-08-20T00:47:20;22.90;99.90
6379;DHT22;3222;48.858;10.128;2023-08-20T00:49:47;22.90;99.90
6379;DHT22;3222;48.858;10.128;2023-08-20T00:52:14;22.90;99.90
6379;DHT22;3222;48.858;10.128;2023-08-20T00:54:40;22.90;99.90
6379;DHT22;3222;48.858;10.128;2023-08-20T00:57:07;22.80;99.90
6379;DHT22;3222;48.858;10.128;2023-08-20T00:59:33;22.80;99.90
6379;DHT22;3222;48.858;10.128;2023-08-20T01:02:00;22.80;99.90
6379;DHT22;3222;48.858;10.128;2023-08-20T01:04:27;22.80;99.90
6379;DHT22;3222;48.858;10.128;2023-08-20T01:12:26;22.80;99.90
6379;DHT22;3222;48.858;10.128;2023-08-20T01:14:51;22.80;99.90
6379;DHT22;3222;48.858;10.128;2023-08-20T01:17:17;22.80;99.90
6379;DHT22;3222;48.858;10.128;2023-08-20T01:19:43;22.80;99.90
6379;DHT22;3222;48.858;10.128;2023-08-20T01:22:21;22.70;99.90
6379;DHT22;3222;48.858;10.128;2023-08-20T01:30:28;22.70;99.90
6379;DHT22;3222;48.858;10.128;2023-08-20T01:32:54;22.70;99.90
6379;DHT22;3222;48.858;10.128;2023-08-20T01:35:24;22.70;99.90
6379;DHT22;3222;48.858;10.128;2023-08-20T01:38:01;22.70;99.90
6379;DHT22;3222;48.858;10.128;2023-08-20T01:40:29;22.60;99.90
6379;DHT22;3222;48.858;10.128;2023-08-20T01:42:55;22.60;99.90
6379;DHT22;3222;48.858;10.128;2023-08-20T01:45:20;22.70;99.90
6379;DHT22;3222;48.858;10.128;2023-08-20T01:47:47;22.60;99.90
6379;DHT22;3222;48.858;10.128;2023-08-20T01:50:14;22.60;99.90
6379;DHT22;3222;48.858;10.128;2023-08-20T01:52:39;22.60;99.90
6379;DHT22;3222;48.858;10.128;2023-08-20T01:55:05;22.60;99.90
6379;DHT22;3222;48.858;10.128;2023-08-20T01:57:32;22.60;99.90
6379;DHT22;3222;48.858;10.128;2023-08-20T01:59:59;22.70;99.90
6379;DHT22;3222;48.858;10.128;2023-08-20T02:02:25;22.60;99.90
6379;DHT22;3222;48.858;10.128;2023-08-20T02:04:50;22.60;99.90
6379;DHT22;3222;48.858;10.128;2023-08-20T02:07:16;22.60;99.90
6379;DHT22;3222;48.858;10.128;2023-08-20T02:09:42;22.60;99.90
6379;DHT22;3222;48.858;10.128;2023-08-20T02:12:08;22.60;99.90
6379;DHT22;3222;48.858;10.128;2023-08-20T02:14:35;22.50;99.90
6379;DHT22;3222;48.858;10.128;2023-08-20T02:17:01;22.50;99.90
6379;DHT22;3222;48.858;10.128;2023-08-20T02:19:27;22.40;99.90
6379;DHT22;3222;48.858;10.128;2023-08-20T02:21:53;22.40;99.90
6379;DHT22;3222;48.858;10.128;2023-08-20T02:24:19;22.50;99.90
6379;DHT22;3222;48.858;10.128;2023-08-20T02:26:44;22.50;99.90
6379;DHT22;3222;48.858;10.128;2023-08-20T02:29:10;22.40;99.90
6379;DHT22;3222;48.858;10.128;2023-08-20T02:31:36;22.40;99.90
6379;DHT22;3222;48.858;10.128;2023-08-20T02:34:02;22.50;99.90
6379;DHT22;3222;48.858;10.128;2023-08-20T02:36:27;22.40;99.90
6379;DHT22;3222;48.858;10.128;2023-08-20T02:38:53;22.40;99.90
6379;DHT22;3222;48.858;10.128;2023-08-20T02:41:19;22.40;99.90
6379;DHT22;3222;48.858;10.128;2023-08-20T02:43:45;22.40;99.90
6379;DHT22;3222;48.858;10.128;2023-08-20T02:46:10;22.40;99.90
6379;DHT22;3222;48.858;10.128;2023-08-20T02:48:36;22.40;99.90
6379;DHT22;3222;48.858;10.128;2023-08-20T02:51:02;22.40;99.90
6379;DHT22;3222;48.858;10.128;2023-08-20T02:53:28;22.40;99.90
6379;DHT22;3222;48.858;10.128;2023-08-20T02:55:54;22.30;99.90
6379;DHT22;3222;48.858;10.128;2023-08-20T02:58:20;22.40;99.90
6379;DHT22;3222;48.858;10.128;2023-08-20T03:00:45;22.40;99.90
6379;DHT22;3222;48.858;10.128;2023-08-20T03:03:11;22.40;99.90
6379;DHT22;3222;48.858;10.128;2023-08-20T03:05:39;22.40;99.90
6379;DHT22;3222;48.858;10.128;2023-08-20T03:08:05;22.30;99.90
6379;DHT22;3222;48.858;10.128;2023-08-20T03:10:32;22.40;99.90
6379;DHT22;3222;48.858;10.128;2023-08-20T03:13:04;22.30;99.90
6379;DHT22;3222;48.858;10.128;2023-08-20T03:15:30;22.40;99.90
6379;DHT22;3222;48.858;10.128;2023-08-20T03:17:55;22.30;99.90
6379;DHT22;3222;48.858;10.128;2023-08-20T03:20:21;22.30;99.90
6379;DHT22;3222;48.858;10.128;2023-08-20T03:22:47;22.30;99.90
6379;DHT22;3222;48.858;10.128;2023-08-20T03:25:13;22.30;99.90
6379;DHT22;3222;48.858;10.128;2023-08-20T03:27:39;22.20;99.90
6379;DHT22;3222;48.858;10.128;2023-08-20T03:30:05;22.20;99.90
6379;DHT22;3222;48.858;10.128;2023-08-20T03:32:32;22.20;99.90
6379;DHT22;3222;48.858;10.128;2023-08-20T03:34:57;22.10;99.90
6379;DHT22;3222;48.858;10.128;2023-08-20T03:37:27;22.10;99.90
6379;DHT22;3222;48.858;10.128;2023-08-20T03:39:53;22.10;99.90
6379;DHT22;3222;48.858;10.128;2023-08-20T03:42:19;22.10;99.90
6379;DHT22;3222;48.858;10.128;2023-08-20T03:44:47;22.10;99.90
6379;DHT22;3222;48.858;10.128;2023-08-20T03:47:12;22.00;99.90
6379;DHT22;3222;48.858;10.128;2023-08-20T03:49:38;22.00;99.90
6379;DHT22;3222;48.858;10.128;2023-08-20T03:52:04;22.00;99.90
6379;DHT22;3222;48.858;10.128;2023-08-20T03:54:33;22.00;99.90
6379;DHT22;3222;48.858;10.128;2023-08-20T03:56:59;22.00;99.90
6379;DHT22;3222;48.858;10.128;2023-08-20T03:59:25;22.00;99.90
6379;DHT22;3222;48.858;10.128;2023-08-20T04:01:50;21.90;99.90
6379;DHT22;3222;48.858;10.128;2023-08-20T04:04:16;21.90;99.90
6379;DHT22;3222;48.858;10.128;2023-08-20T04:06:42;21.90;99.90
6379;DHT22;3222;48.858;10.128;2023-08-20T04:09:08;21.90;99.90
6379;DHT22;3222;48.858;10.128;2023-08-20T04:11:35;21.90;99.90
6379;DHT22;3222;48.858;10.128;2023-08-20T04:14:01;21.90;99.90
6379;DHT22;3222;48.858;10.128;2023-08-20T04:16:27;21.90;99.90
6379;DHT22;3222;48.858;10.128;2023-08-20T04:18:53;21.90;99.90
6379;DHT22;3222;48.858;10.128;2023-08-20T04:21:19;21.90;99.90
6379;DHT22;3222;48.858;10.128;2023-08-20T04:23:44;21.90;99.90
6379;DHT22;3222;48.858;10.128;2023-08-20T04:26:10;21.90;99.90
6379;DHT22;3222;48.858;10.128;2023-08-20T04:28:36;21.90;99.90
6379;DHT22;3222;48.858;10.128;2023-08-20T04:31:02;21.90;99.90
6379;DHT22;3222;48.858;10.128;2023-08-20T04:33:41;21.90;99.90
6379;DHT22;3222;48.858;10.128;2023-08-20T04:36:06;21.80;99.90
6379;DHT22;3222;48.858;10.128;2023-08-20T04:38:32;21.80;99.90
6379;DHT22;3222;48.858;10.128;2023-08-20T04:40:58;21.80;99.90
6379;DHT22;3222;48.858;10.128;2023-08-20T04:43:24;21.80;99.90
6379;DHT22;3222;48.858;10.128;2023-08-20T04:45:49;21.80;99.90
6379;DHT22;3222;48.858;10.128;2023-08-20T04:48:15;21.70;99.90
6379;DHT22;3222;48.858;10.128;2023-08-20T04:50:41;21.70;99.90
6379;DHT22;3222;48.858;10.128;2023-08-20T04:53:07;21.70;99.90
6379;DHT22;3222;48.858;10.128;2023-08-20T04:55:33;21.70;99.90
6379;DHT22;3222;48.858;10.128;2023-08-20T04:57:59;21.70;99.90
6379;DHT22;3222;48.858;10.128;2023-08-20T05:00:25;21.70;99.90
6379;DHT22;3222;48.858;10.128;2023-08-20T05:03:06;21.70;99.90
6379;DHT22;3222;48.858;10.128;2023-08-20T05:05:32;21.70;99.90
6379;DHT22;3222;48.858;10.128;2023-08-20T05:07:58;21.70;99.90
6379;DHT22;3222;48.858;10.128;2023-08-20T05:10:24;21.70;99.90
6379;DHT22;3222;48.858;10.128;2023-08-20T05:12:51;21.70;99.90
6379;DHT22;3222;48.858;10.128;2023-08-20T05:15:16;21.70;99.90
6379;DHT22;3222;48.858;10.128;2023-08-20T05:17:42;21.70;99.90
6379;DHT22;3222;48.858;10.128;2023-08-20T05:20:08;21.70;99.90
6379;DHT22;3222;48.858;10.128;2023-08-20T05:22:35;21.70;99.90
6379;DHT22;3222;48.858;10.128;2023-08-20T05:25:02;21.70;99.90
6379;DHT22;3222;48.858;10.128;2023-08-20T05:27:27;21.70;99.90
6379;DHT22;3222;48.858;10.128;2023-08-20T05:29:53;21.70;99.90
6379;DHT22;3222;48.858;10.128;2023-08-20T05:32:20;21.70;99.90
6379;DHT22;3222;48.858;10.128;2023-08-20T05:34:46;21.70;99.90
6379;DHT22;3222;48.858;10.128;2023-08-20T05:37:11;21.80;99.90
6379;DHT22;3222;48.858;10.128;2023-08-20T05:39:42;21.80;99.90
6379;DHT22;3222;48.858;10.128;2023-08-20T05:42:08;21.80;99.90
6379;DHT22;3222;48.858;10.128;2023-08-20T05:44:34;21.80;99.90
6379;DHT22;3222;48.858;10.128;2023-08-20T05:47:01;21.80;99.90
6379;DHT22;3222;48.858;10.128;2023-08-20T05:49:27;21.80;99.90
6379;DHT22;3222;48.858;10.128;2023-08-20T05:51:53;21.80;99.90
6379;DHT22;3222;48.858;10.128;2023-08-20T05:54:19;21.90;99.90
6379;DHT22;3222;48.858;10.128;2023-08-20T05:56:45;21.90;99.90
6379;DHT22;3222;48.858;10.128;2023-08-20T05:59:10;21.90;99.90
6379;DHT22;3222;48.858;10.128;2023-08-20T06:01:36;21.90;99.90
6379;DHT22;3222;48.858;10.128;2023-08-20T06:04:02;22.00;99.90
6379;DHT22;3222;48.858;10.128;2023-08-20T06:06:28;22.10;99.90
6379;DHT22;3222;48.858;10.128;2023-08-20T06:08:53;22.10;99.90
6379;DHT22;3222;48.858;10.128;2023-08-20T06:11:20;22.10;99.90
6379;DHT22;3222;48.858;10.128;2023-08-20T06:13:46;22.10;99.90
6379;DHT22;3222;48.858;10.128;2023-08-20T06:16:11;22.10;99.90
6379;DHT22;3222;48.858;10.128;2023-08-20T06:18:37;22.20;99.90
6379;DHT22;3222;48.858;10.128;2023-08-20T06:21:03;22.30;99.90
6379;DHT22;3222;48.858;10.128;2023-08-20T06:23:29;22.30;99.90
6379;DHT22;3222;48.858;10.128;2023-08-20T06:25:55;22.40;99.90
6379;DHT22;3222;48.858;10.128;2023-08-20T06:28:21;22.40;99.90
6379;DHT22;3222;48.858;10.128;2023-08-20T06:30:47;22.30;99.90
6379;DHT22;3222;48.858;10.128;2023-08-20T06:33:12;22.40;99.90
6379;DHT22;3222;48.858;10.128;2023-08-20T06:35:38;22.40;99.90
6379;DHT22;3222;48.858;10.128;2023-08-20T06:38:04;22.40;99.90
6379;DHT22;3222;48.858;10.128;2023-08-20T06:40:30;22.60;99.90
6379;DHT22;3222;48.858;10.128;2023-08-20T06:42:56;22.60;99.90
6379;DHT22;3222;48.858;10.128;2023-08-20T06:45:22;22.70;99.90
6379;DHT22;3222;48.858;10.128;2023-08-20T06:47:47;22.70;99.90
6379;DHT22;3222;48.858;10.128;2023-08-20T06:50:13;22.70;99.90
6379;DHT22;3222;48.858;10.128;2023-08-20T06:52:39;22.70;99.90
6379;DHT22;3222;48.858;10.128;2023-08-20T06:55:04;22.80;99.90
6379;DHT22;3222;48.858;10.128;2023-08-20T06:57:30;22.90;99.90
6379;DHT22;3222;48.858;10.128;2023-08-20T06:59:57;22.90;99.90
6379;DHT22;3222;48.858;10.128;2023-08-20T07:02:22;22.90;99.90
6379;DHT22;3222;48.858;10.128;2023-08-20T07:04:48;23.00;99.90
6379;DHT22;3222;48.858;10.128;2023-08-20T07:07:14;23.20;99.90
6379;DHT22;3222;48.858;10.128;2023-08-20T07:09:40;23.30;99.90
6379;DHT22;3222;48.858;10.128;2023-08-20T07:12:06;23.20;99.90
6379;DHT22;3222;48.858;10.128;2023-08-20T07:14:32;23.20;99.90
6379;DHT22;3222;48.858;10.128;2023-08-20T07:16:59;23.20;99.90
6379;DHT22;3222;48.858;10.128;2023-08-20T07:19:25;23.30;99.90
6379;DHT22;3222;48.858;10.128;2023-08-20T07:21:51;23.20;99.90
6379;DHT22;3222;48.858;10.128;2023-08-20T07:24:17;23.30;99.90
6379;DHT22;3222;48.858;10.128;2023-08-20T07:26:43;23.40;99.90
6379;DHT22;3222;48.858;10.128;2023-08-20T07:29:09;23.40;99.90
6379;DHT22;3222;48.858;10.128;2023-08-20T07:31:35;23.40;99.90
6379;DHT22;3222;48.858;10.128;2023-08-20T07:34:02;23.40;99.90
6379;DHT22;3222;48.858;10.128;2023-08-20T07:36:28;23.50;99.90
6379;DHT22;3222;48.858;10.128;2023-08-20T07:38:54;23.50;99.90
6379;DHT22;3222;48.858;10.128;2023-08-20T07:41:20;23.50;99.90
6379;DHT22;3222;48.858;10.128;2023-08-20T07:43:47;23.60;99.90
6379;DHT22;3222;48.858;10.128;2023-08-20T07:46:13;23.70;99.90
6379;DHT22;3222;48.858;10.128;2023-08-20T07:48:39;23.70;99.90
6379;DHT22;3222;48.858;10.128;2023-08-20T07:51:05;23.70;99.90
6379;DHT22;3222;48.858;10.128;2023-08-20T07:53:32;23.60;99.90
6379;DHT22;3222;48.858;10.128;2023-08-20T07:55:58;23.70;99.90
6379;DHT22;3222;48.858;10.128;2023-08-20T07:58:24;23.70;99.90
6379;DHT22;3222;48.858;10.128;2023-08-20T08:00:50;23.70;99.90
6379;DHT22;3222;48.858;10.128;2023-08-20T08:03:16;23.80;99.90
6379;DHT22;3222;48.858;10.128;2023-08-20T08:05:46;23.90;99.90
6379;DHT22;3222;48.858;10.128;2023-08-20T08:08:12;23.80;99.90
6379;DHT22;3222;48.858;10.128;2023-08-20T08:10:38;24.00;99.90
6379;DHT22;3222;48.858;10.128;2023-08-20T08:13:03;24.10;99.90
6379;DHT22;3222;48.858;10.128;2023-08-20T08:15:29;24.00;99.90
6379;DHT22;3222;48.858;10.128;2023-08-20T08:17:55;24.00;99.90
6379;DHT22;3222;48.858;10.128;2023-08-20T08:20:20;24.00;99.90
6379;DHT22;3222;48.858;10.128;2023-08-20T08:22:46;24.10;99.90
6379;DHT22;3222;48.858;10.128;2023-08-20T08:25:12;24.10;99.90
6379;DHT22;3222;48.858;10.128;2023-08-20T08:27:37;24.20;99.90
6379;DHT22;3222;48.858;10.128;2023-08-20T08:30:03;24.20;99.90
6379;DHT22;3222;48.858;10.128;2023-08-20T08:32:29;24.20;99.90
6379;DHT22;3222;48.858;10.128;2023-08-20T08:34:55;24.20;99.90
6379;DHT22;3222;48.858;10.128;2023-08-20T08:37:20;24.30;99.90
6379;DHT22;3222;48.858;10.128;2023-08-20T08:39:46;24.20;99.90
6379;DHT22;3222;48.858;10.128;2023-08-20T08:42:14;24.30;99.90
6379;DHT22;3222;48.858;10.128;2023-08-20T08:44:40;24.30;99.90
6379;DHT22;3222;48.858;10.128;2023-08-20T08:47:06;24.40;99.90
6379;DHT22;3222;48.858;10.128;2023-08-20T08:49:33;24.60;99.90
6379;DHT22;3222;48.858;10.128;2023-08-20T08:51:59;24.60;99.90
6379;DHT22;3222;48.858;10.128;2023-08-20T08:54:26;24.70;99.90
6379;DHT22;3222;48.858;10.128;2023-08-20T08:56:52;24.70;99.90
6379;DHT22;3222;48.858;10.128;2023-08-20T08:59:19;24.70;99.90
6379;DHT22;3222;48.858;10.128;2023-08-20T09:01:45;24.70;99.90
6379;DHT22;3222;48.858;10.128;2023-08-20T09:04:10;24.80;99.90
6379;DHT22;3222;48.858;10.128;2023-08-20T09:06:50;24.80;99.90
6379;DHT22;3222;48.858;10.128;2023-08-20T09:09:20;24.80;99.90
6379;DHT22;3222;48.858;10.128;2023-08-20T09:11:50;24.90;99.90
6379;DHT22;3222;48.858;10.128;2023-08-20T09:14:28;24.90;99.90
6379;DHT22;3222;48.858;10.128;2023-08-20T09:16:55;25.00;99.90
6379;DHT22;3222;48.858;10.128;2023-08-20T09:19:22;25.10;99.90
6379;DHT22;3222;48.858;10.128;2023-08-20T09:21:47;25.10;99.90
6379;DHT22;3222;48.858;10.128;2023-08-20T09:24:14;25.00;99.90
6379;DHT22;3222;48.858;10.128;2023-08-20T09:26:44;25.10;99.90
6379;DHT22;3222;48.858;10.128;2023-08-20T09:29:10;25.20;99.90
6379;DHT22;3222;48.858;10.128;2023-08-20T09:31:38;25.10;99.90
6379;DHT22;3222;48.858;10.128;2023-08-20T09:34:04;25.10;99.90
6379;DHT22;3222;48.858;10.128;2023-08-20T09:36:34;25.20;99.90
6379;DHT22;3222;48.858;10.128;2023-08-20T09:39:04;25.20;99.90
6379;DHT22;3222;48.858;10.128;2023-08-20T09:41:29;25.30;99.90
6379;DHT22;3222;48.858;10.128;2023-08-20T09:43:58;25.40;99.90
6379;DHT22;3222;48.858;10.128;2023-08-20T09:46:27;25.40;99.90
6379;DHT22;3222;48.858;10.128;2023-08-20T09:48:56;25.40;99.90
6379;DHT22;3222;48.858;10.128;2023-08-20T09:51:28;25.40;99.90
6379;DHT22;3222;48.858;10.128;2023-08-20T09:54:12;25.50;99.90
6379;DHT22;3222;48.858;10.128;2023-08-20T09:56:39;25.50;99.90
6379;DHT22;3222;48.858;10.128;2023-08-20T09:59:07;25.60;99.90
6379;DHT22;3222;48.858;10.128;2023-08-20T10:01:34;25.60;99.90
6379;DHT22;3222;48.858;10.128;2023-08-20T10:04:00;25.70;99.90
6379;DHT22;3222;48.858;10.128;2023-08-20T10:06:26;25.70;99.90
6379;DHT22;3222;48.858;10.128;2023-08-20T10:08:53;25.70;99.90
6379;DHT22;3222;48.858;10.128;2023-08-20T10:11:19;25.70;99.90
6379;DHT22;3222;48.858;10.128;2023-08-20T10:13:45;25.70;99.90
6379;DHT22;3222;48.858;10.128;2023-08-20T10:16:17;25.80;99.90
6379;DHT22;3222;48.858;10.128;2023-08-20T10:18:46;25.90;99.90
6379;DHT22;3222;48.858;10.128;2023-08-20T10:21:13;26.00;99.90
6379;DHT22;3222;48.858;10.128;2023-08-20T10:23:41;26.10;99.90
6379;DHT22;3222;48.858;10.128;2023-08-20T10:26:10;26.20;99.90
6379;DHT22;3222;48.858;10.128;2023-08-20T10:28:37;26.30;99.90
6379;DHT22;3222;48.858;10.128;2023-08-20T10:31:03;26.20;99.90
6379;DHT22;3222;48.858;10.128;2023-08-20T10:33:33;26.30;99.90
6379;DHT22;3222;48.858;10.128;2023-08-20T10:36:07;26.30;99.90
6379;DHT22;3222;48.858;10.128;2023-08-20T10:38:36;26.40;99.90
6379;DHT22;3222;48.858;10.128;2023-08-20T10:41:01;26.40;99.90
6379;DHT22;3222;48.858;10.128;2023-08-20T10:48:39;26.50;99.90
6379;DHT22;3222;48.858;10.128;2023-08-20T10:51:09;26.50;99.90
6379;DHT22;3222;48.858;10.128;2023-08-20T10:53:34;26.40;99.90
6379;DHT22;3222;48.858;10.128;2023-08-20T10:56:11;26.40;99.90
6379;DHT22;3222;48.858;10.128;2023-08-20T10:58:40;26.40;99.90
6379;DHT22;3222;48.858;10.128;2023-08-20T11:03:39;26.50;99.90
6379;DHT22;3222;48.858;10.128;2023-08-20T11:06:06;26.60;99.90
6379;DHT22;3222;48.858;10.128;2023-08-20T11:08:32;26.70;99.90
6379;DHT22;3222;48.858;10.128;2023-08-20T11:10:58;26.60;99.90
6379;DHT22;3222;48.858;10.128;2023-08-20T11:13:25;26.70;99.90
6379;DHT22;3222;48.858;10.128;2023-08-20T11:15:51;26.80;99.90
6379;DHT22;3222;48.858;10.128;2023-08-20T11:18:17;26.90;99.90
6379;DHT22;3222;48.858;10.128;2023-08-20T11:20:43;27.00;99.90
6379;DHT22;3222;48.858;10.128;2023-08-20T11:23:10;27.00;99.90
6379;DHT22;3222;48.858;10.128;2023-08-20T11:25:41;27.00;99.90
6379;DHT22;3222;48.858;10.128;2023-08-20T11:28:07;26.90;99.90
6379;DHT22;3222;48.858;10.128;2023-08-20T11:30:33;27.00;99.90
6379;DHT22;3222;48.858;10.128;2023-08-20T11:32:59;27.00;99.90
6379;DHT22;3222;48.858;10.128;2023-08-20T11:35:25;27.10;99.90
6379;DHT22;3222;48.858;10.128;2023-08-20T11:37:52;27.30;99.90
6379;DHT22;3222;48.858;10.128;2023-08-20T11:40:20;27.50;99.90
6379;DHT22;3222;48.858;10.128;2023-08-20T11:42:46;27.50;99.90
6379;DHT22;3222;48.858;10.128;2023-08-20T11:45:12;27.60;99.90
6379;DHT22;3222;48.858;10.128;2023-08-20T11:47:39;27.60;99.90
6379;DHT22;3222;48.858;10.128;2023-08-20T11:50:06;27.70;99.90
6379;DHT22;3222;48.858;10.128;2023-08-20T11:52:33;27.80;99.90
6379;DHT22;3222;48.858;10.128;2023-08-20T11:54:59;27.80;99.90
6379;DHT22;3222;48.858;10.128;2023-08-20T11:57:26;27.70;99.90
6379;DHT22;3222;48.858;10.128;2023-08-20T11:59:51;27.80;99.90
6379;DHT22;3222;48.858;10.128;2023-08-20T12:02:25;27.80;99.90
6379;DHT22;3222;48.858;10.128;2023-08-20T12:04:51;27.80;99.90
6379;DHT22;3222;48.858;10.128;2023-08-20T12:07:17;27.80;99.90
6379;DHT22;3222;48.858;10.128;2023-08-20T12:09:42;27.90;99.90
6379;DHT22;3222;48.858;10.128;2023-08-20T12:12:09;27.90;99.90
6379;DHT22;3222;48.858;10.128;2023-08-20T12:14:35;27.90;99.90
6379;DHT22;3222;48.858;10.128;2023-08-20T12:17:01;27.90;99.90
6379;DHT22;3222;48.858;10.128;2023-08-20T12:19:28;28.00;99.90
6379;DHT22;3222;48.858;10.128;2023-08-20T12:21:54;28.10;99.90
6379;DHT22;3222;48.858;10.128;2023-08-20T12:24:20;28.10;99.90
6379;DHT22;3222;48.858;10.128;2023-08-20T12:26:46;28.00;99.90
6379;DHT22;3222;48.858;10.128;2023-08-20T12:29:12;28.00;99.90
6379;DHT22;3222;48.858;10.128;2023-08-20T12:31:38;28.00;99.90
6379;DHT22;3222;48.858;10.128;2023-08-20T12:34:03;28.10;99.90
6379;DHT22;3222;48.858;10.128;2023-08-20T12:36:29;28.10;99.90
6379;DHT22;3222;48.858;10.128;2023-08-20T12:38:55;28.10;99.90
6379;DHT22;3222;48.858;10.128;2023-08-20T12:41:22;28.20;99.90
6379;DHT22;3222;48.858;10.128;2023-08-20T12:43:47;28.30;99.90
6379;DHT22;3222;48.858;10.128;2023-08-20T12:46:13;28.30;99.90
6379;DHT22;3222;48.858;10.128;2023-08-20T12:48:39;28.40;99.90
6379;DHT22;3222;48.858;10.128;2023-08-20T12:51:05;28.40;99.90
6379;DHT22;3222;48.858;10.128;2023-08-20T12:53:32;28.40;99.90
6379;DHT22;3222;48.858;10.128;2023-08-20T12:55:57;28.50;99.90
6379;DHT22;3222;48.858;10.128;2023-08-20T12:58:23;28.60;99.90
6379;DHT22;3222;48.858;10.128;2023-08-20T13:00:50;28.60;99.90
6379;DHT22;3222;48.858;10.128;2023-08-20T13:03:19;28.60;99.90
6379;DHT22;3222;48.858;10.128;2023-08-20T13:05:45;28.70;99.90
6379;DHT22;3222;48.858;10.128;2023-08-20T13:08:11;28.60;99.90
6379;DHT22;3222;48.858;10.128;2023-08-20T13:10:41;28.60;99.90
6379;DHT22;3222;48.858;10.128;2023-08-20T13:13:10;28.60;99.90
6379;DHT22;3222;48.858;10.128;2023-08-20T13:15:36;28.60;99.90
6379;DHT22;3222;48.858;10.128;2023-08-20T13:18:02;28.70;99.90
6379;DHT22;3222;48.858;10.128;2023-08-20T13:20:28;28.60;99.90
6379;DHT22;3222;48.858;10.128;2023-08-20T13:22:53;28.80;99.90
6379;DHT22;3222;48.858;10.128;2023-08-20T13:25:20;28.90;99.90
6379;DHT22;3222;48.858;10.128;2023-08-20T13:27:47;28.90;99.90
6379;DHT22;3222;48.858;10.128;2023-08-20T13:30:12;29.00;99.90
6379;DHT22;3222;48.858;10.128;2023-08-20T13:32:39;29.10;99.90
6379;DHT22;3222;48.858;10.128;2023-08-20T13:35:05;29.20;99.90
6379;DHT22;3222;48.858;10.128;2023-08-20T13:37:31;29.20;99.90
6379;DHT22;3222;48.858;10.128;2023-08-20T13:39:57;29.30;99.90
6379;DHT22;3222;48.858;10.128;2023-08-20T13:42:23;29.20;99.90
6379;DHT22;3222;48.858;10.128;2023-08-20T13:44:49;29.20;99.90
6379;DHT22;3222;48.858;10.128;2023-08-20T13:47:15;29.40;99.90
6379;DHT22;3222;48.858;10.128;2023-08-20T13:49:40;29.40;99.90
6379;DHT22;3222;48.858;10.128;2023-08-20T13:52:06;29.40;99.90
6379;DHT22;3222;48.858;10.128;2023-08-20T13:54:32;29.30;99.90
6379;DHT22;3222;48.858;10.128;2023-08-20T13:56:58;29.30;99.90
6379;DHT22;3222;48.858;10.128;2023-08-20T13:59:24;29.40;99.90
6379;DHT22;3222;48.858;10.128;2023-08-20T14:01:49;29.40;99.90
6379;DHT22;3222;48.858;10.128;2023-08-20T14:04:15;29.60;99.90
6379;DHT22;3222;48.858;10.128;2023-08-20T14:06:41;29.70;99.90
6379;DHT22;3222;48.858;10.128;2023-08-20T14:09:06;29.70;99.90
6379;DHT22;3222;48.858;10.128;2023-08-20T14:11:32;29.70;99.90
6379;DHT22;3222;48.858;10.128;2023-08-20T14:13:58;29.70;99.90
6379;DHT22;3222;48.858;10.128;2023-08-20T14:16:23;29.80;99.90
6379;DHT22;3222;48.858;10.128;2023-08-20T14:18:49;29.90;99.90
6379;DHT22;3222;48.858;10.128;2023-08-20T14:21:15;29.80;99.90
6379;DHT22;3222;48.858;10.128;2023-08-20T14:23:40;30.00;99.90
6379;DHT22;3222;48.858;10.128;2023-08-20T14:26:06;30.00;99.90
6379;DHT22;3222;48.858;10.128;2023-08-20T14:28:33;30.10;99.90
6379;DHT22;3222;48.858;10.128;2023-08-20T14:31:03;30.20;99.90
6379;DHT22;3222;48.858;10.128;2023-08-20T14:33:30;30.10;99.90
6379;DHT22;3222;48.858;10.128;2023-08-20T14:35:56;30.00;99.90
6379;DHT22;3222;48.858;10.128;2023-08-20T14:38:21;30.10;99.90
6379;DHT22;3222;48.858;10.128;2023-08-20T14:40:47;30.10;99.90
6379;DHT22;3222;48.858;10.128;2023-08-20T14:43:13;30.10;99.90
6379;DHT22;3222;48.858;10.128;2023-08-20T14:45:38;30.20;99.90
6379;DHT22;3222;48.858;10.128;2023-08-20T14:48:04;30.30;99.90
6379;DHT22;3222;48.858;10.128;2023-08-20T14:50:30;30.40;99.90
6379;DHT22;3222;48.858;10.128;2023-08-20T14:52:57;30.40;99.90
6379;DHT22;3222;48.858;10.128;2023-08-20T14:55:23;30.50;99.90
6379;DHT22;3222;48.858;10.128;2023-08-20T14:57:48;30.50;99.90
6379;DHT22;3222;48.858;10.128;2023-08-20T15:00:14;30.50;99.90
6379;DHT22;3222;48.858;10.128;2023-08-20T15:02:41;30.40;99.90
6379;DHT22;3222;48.858;10.128;2023-08-20T15:05:07;30.50;99.90
6379;DHT22;3222;48.858;10.128;2023-08-20T15:07:32;30.50;99.90
6379;DHT22;3222;48.858;10.128;2023-08-20T15:09:58;30.50;99.90
6379;DHT22;3222;48.858;10.128;2023-08-20T15:12:24;30.60;99.90
6379;DHT22;3222;48.858;10.128;2023-08-20T15:14:49;30.70;99.90
6379;DHT22;3222;48.858;10.128;2023-08-20T15:17:15;30.60;99.90
6379;DHT22;3222;48.858;10.128;2023-08-20T15:19:41;30.70;99.90
6379;DHT22;3222;48.858;10.128;2023-08-20T15:22:06;30.80;99.90
6379;DHT22;3222;48.858;10.128;2023-08-20T15:24:32;30.90;99.90
6379;DHT22;3222;48.858;10.128;2023-08-20T15:26:58;31.00;99.90
6379;DHT22;3222;48.858;10.128;2023-08-20T15:29:23;31.20;99.90
6379;DHT22;3222;48.858;10.128;2023-08-20T15:31:49;31.10;99.90
6379;DHT22;3222;48.858;10.128;2023-08-20T15:34:17;31.10;99.90
6379;DHT22;3222;48.858;10.128;2023-08-20T15:36:43;31.10;99.90
6379;DHT22;3222;48.858;10.128;2023-08-20T15:39:09;31.20;99.90
6379;DHT22;3222;48.858;10.128;2023-08-20T15:41:34;31.20;99.90
6379;DHT22;3222;48.858;10.128;2023-08-20T15:44:00;31.30;99.90
6379;DHT22;3222;48.858;10.128;2023-08-20T15:46:26;31.30;99.90
6379;DHT22;3222;48.858;10.128;2023-08-20T15:48:52;31.10;99.90
6379;DHT22;3222;48.858;10.128;2023-08-20T15:51:18;30.90;99.90
6379;DHT22;3222;48.858;10.128;2023-08-20T15:53:45;30.60;99.90
6379;DHT22;3222;48.858;10.128;2023-08-20T15:56:10;30.50;99.90
6379;DHT22;3222;48.858;10.128;2023-08-20T15:58:36;30.30;99.90